Time;durP1;ratioP1;P1;durP2;ratioP2;P2;SDS_P1;SDS_P2;PMS_P1;PMS_P2;Temp;Humidity;BMP_temperature;BMP_pressure;BME280_temperature;BME280_humidity;BME280_pressure;Samples;Min_cycle;Max_cycle;Signal;HPM_P1;HPM_P2
2022/12/17 13:06:33;;;;;;;71.30;37.08;;;;;;;;;;5075552;28;20033;-71
2022/12/17 13:09:19;;;;;;;74.20;36.75;;;;;;;;;;5075659;28;20122;-71
2022/12/17 13:11:48;;;;;;;61.58;33.42;;;;;;;;;;5075836;28;20060;-71
2022/12/17 13:14:23;;;;;;;70.32;35.80;;;;;;;;;;5075719;28;20391;-72
2022/12/17 13:16:52;;;;;;;67.30;33.78;;;;;;;;;;5075578;28;20020;-72
2022/12/17 13:19:31;;;;;;;72.13;35.83;;;;;;;;;;5073844;28;20431;-71
2022/12/17 13:22:17;;;;;;;70.93;37.30;;;;;;;;;;5075572;28;20476;-71
2022/12/17 13:24:44;;;;;;;69.32;35.08;;;;;;;;;;5075379;28;20032;-71
2022/12/17 13:27:26;;;;;;;82.13;37.05;;;;;;;;;;5075395;28;20025;-71
2022/12/17 13:29:52;;;;;;;68.22;34.15;;;;;;;;;;5075334;28;20036;-71
2022/12/17 13:32:26;;;;;;;62.15;32.70;;;;;;;;;;5075377;28;20023;-71
2022/12/17 13:35:11;;;;;;;67.40;34.67;;;;;;;;;;5075511;28;20032;-71
2022/12/17 13:37:46;;;;;;;67.25;34.08;;;;;;;;;;5075335;28;20066;-71
2022/12/17 13:40:24;;;;;;;66.13;33.50;;;;;;;;;;5075268;28;20040;-71
2022/12/17 13:42:51;;;;;;;66.20;34.03;;;;;;;;;;5073565;28;20040;-71
2022/12/17 13:45:18;;;;;;;64.15;32.30;;;;;;;;;;5075124;28;20017;-69
2022/12/17 13:47:51;;;;;;;67.13;34.58;;;;;;;;;;5074987;28;20028;-69
2022/12/17 13:50:19;;;;;;;65.68;33.67;;;;;;;;;;5074898;28;20032;-69
2022/12/17 13:52:46;;;;;;;68.43;35.45;;;;;;;;;;5074718;28;20021;-69
2022/12/17 13:55:23;;;;;;;66.55;35.17;;;;;;;;;;5075192;28;20056;-69
2022/12/17 13:57:49;;;;;;;65.97;34.80;;;;;;;;;;5074996;28;20387;-69
2022/12/17 14:00:28;;;;;;;68.32;33.88;;;;;;;;;;5074917;28;20482;-69
2022/12/17 14:02:54;;;;;;;69.80;35.08;;;;;;;;;;5074719;28;20029;-69
2022/12/17 14:05:28;;;;;;;71.30;36.28;;;;;;;;;;5073200;28;20012;-69
2022/12/17 14:07:57;;;;;;;71.40;35.45;;;;;;;;;;5073401;28;20033;-68
2022/12/17 14:10:23;;;;;;;71.60;37.38;;;;;;;;;;5074594;28;20035;-68
2022/12/17 14:12:49;;;;;;;79.25;38.33;;;;;;;;;;5074621;28;20043;-68
2022/12/17 14:15:33;;;;;;;73.03;38.25;;;;;;;;;;5072754;28;20464;-68
2022/12/17 14:17:59;;;;;;;74.28;38.55;;;;;;;;;;5074329;28;20036;-68
2022/12/17 14:20:27;;;;;;;71.50;35.50;;;;;;;;;;5074031;28;20041;-68
2022/12/17 14:23:06;;;;;;;79.50;38.97;;;;;;;;;;5072691;28;20510;-68
2022/12/17 14:25:36;;;;;;;75.78;38.45;;;;;;;;;;5073738;28;20036;-69
2022/12/17 14:28:18;;;;;;;72.35;35.90;;;;;;;;;;5072927;28;20036;-69
2022/12/17 14:30:44;;;;;;;75.55;37.00;;;;;;;;;;5074291;28;20017;-69
2022/12/17 14:33:36;;;;;;;70.22;36.10;;;;;;;;;;5073851;28;20016;-69
2022/12/17 14:36:06;;;;;;;79.22;37.90;;;;;;;;;;5072503;28;20050;-67
2022/12/17 14:38:33;;;;;;;76.65;37.08;;;;;;;;;;5073833;28;20365;-67
2022/12/17 14:44:04;;;;;;;67.53;32.55;;;;;;;;;;5074327;28;20062;-66
2022/12/17 14:46:31;;;;;;;73.25;38.50;;;;;;;;;;5074706;28;20020;-64
2022/12/17 14:49:02;;;;;;;82.35;39.30;;;;;;;;;;5074165;28;20118;-66
2022/12/17 14:51:28;;;;;;;76.97;39.05;;;;;;;;;;5072855;28;20472;-66
2022/12/17 14:54:05;;;;;;;77.82;38.65;;;;;;;;;;5072019;28;20113;-66
2022/12/17 14:56:31;;;;;;;74.75;37.60;;;;;;;;;;5074152;28;20112;-66
2022/12/17 14:58:56;;;;;;;78.28;37.55;;;;;;;;;;5074374;28;20095;-68
2022/12/17 15:01:22;;;;;;;75.63;38.30;;;;;;;;;;5072710;28;20051;-68
2022/12/17 15:03:48;;;;;;;76.63;38.63;;;;;;;;;;5073854;28;20479;-69
2022/12/17 15:06:17;;;;;;;80.10;38.28;;;;;;;;;;5074142;28;20052;-70
2022/12/17 15:08:46;;;;;;;77.45;38.38;;;;;;;;;;5072073;28;20098;-71
2022/12/17 15:11:14;;;;;;;72.70;37.67;;;;;;;;;;5073391;28;20040;-70
2022/12/17 15:13:40;;;;;;;73.07;38.22;;;;;;;;;;5073431;28;20050;-70
2022/12/17 15:16:06;;;;;;;72.57;37.92;;;;;;;;;;5073427;28;20028;-75
2022/12/17 15:18:32;;;;;;;71.10;38.60;;;;;;;;;;5073294;28;20411;-72
2022/12/17 15:21:00;;;;;;;71.82;37.38;;;;;;;;;;5072091;28;20123;-72
2022/12/17 15:23:27;;;;;;;73.88;37.88;;;;;;;;;;5071579;28;20032;-71
2022/12/17 15:25:53;;;;;;;73.22;38.47;;;;;;;;;;5072080;28;20044;-71
2022/12/17 15:28:19;;;;;;;72.63;37.38;;;;;;;;;;5073208;28;20021;-71
2022/12/17 15:30:46;;;;;;;70.55;38.05;;;;;;;;;;5073176;28;20028;-71
2022/12/17 15:33:12;;;;;;;75.20;39.92;;;;;;;;;;5073408;28;20513;-69
2022/12/17 15:35:38;;;;;;;77.70;38.88;;;;;;;;;;5071619;28;20472;-69
2022/12/17 15:38:06;;;;;;;74.25;38.13;;;;;;;;;;5073144;28;20055;-69
2022/12/17 15:40:32;;;;;;;78.40;38.65;;;;;;;;;;5073092;28;20036;-71
2022/12/17 15:43:10;;;;;;;75.70;40.20;;;;;;;;;;5073004;28;20122;-71
2022/12/17 15:45:36;;;;;;;85.18;40.38;;;;;;;;;;5072909;28;20029;-72
2022/12/17 15:48:02;;;;;;;83.75;43.60;;;;;;;;;;5072976;28;20464;-71
2022/12/17 15:50:28;;;;;;;82.38;42.67;;;;;;;;;;5071814;28;20365;-71
2022/12/17 15:52:53;;;;;;;81.20;42.25;;;;;;;;;;5072776;28;20126;-71
2022/12/17 15:55:20;;;;;;;82.82;41.92;;;;;;;;;;5072782;28;20029;-70
2022/12/17 15:57:45;;;;;;;85.75;43.63;;;;;;;;;;5071295;28;20154;-70
2022/12/17 16:00:11;;;;;;;86.88;42.92;;;;;;;;;;5072800;28;20039;-70
2022/12/17 16:02:36;;;;;;;68.72;35.38;;;;;;;;;;5072271;28;20024;-70
2022/12/17 16:05:02;;;;;;;88.22;42.28;;;;;;;;;;5072311;28;20032;-71
2022/12/17 16:07:27;;;;;;;80.07;41.65;;;;;;;;;;5072623;28;20384;-71
2022/12/17 16:09:53;;;;;;;88.07;45.30;;;;;;;;;;5072101;28;20032;-71
2022/12/17 16:12:21;;;;;;;80.90;41.40;;;;;;;;;;5072240;28;20021;-71
2022/12/17 16:14:48;;;;;;;85.00;43.58;;;;;;;;;;5072246;28;20056;-71
2022/12/17 16:17:13;;;;;;;78.28;40.65;;;;;;;;;;5072622;28;20044;-71
2022/12/17 16:19:40;;;;;;;81.07;40.08;;;;;;;;;;5072276;28;20045;-71
2022/12/17 16:22:05;;;;;;;77.88;39.75;;;;;;;;;;5072574;28;20028;-71
2022/12/17 16:24:31;;;;;;;80.53;40.67;;;;;;;;;;5072607;28;20115;-71
2022/12/17 16:26:56;;;;;;;76.15;39.67;;;;;;;;;;5072525;28;20054;-70
2022/12/17 16:29:22;;;;;;;73.57;38.90;;;;;;;;;;5072486;28;20048;-70
2022/12/17 16:31:48;;;;;;;73.63;37.70;;;;;;;;;;5072631;28;20062;-71
2022/12/17 16:34:14;;;;;;;78.85;39.40;;;;;;;;;;5071333;28;20028;-70
2022/12/17 16:36:40;;;;;;;81.60;43.42;;;;;;;;;;5072505;28;20020;-70
2022/12/17 16:39:07;;;;;;;71.55;39.03;;;;;;;;;;5071943;28;20447;-71
2022/12/17 16:41:34;;;;;;;79.55;41.03;;;;;;;;;;5054459;28;20111;-71
2022/12/17 16:44:00;;;;;;;73.10;37.85;;;;;;;;;;5072300;28;20063;-71
2022/12/17 16:46:33;;;;;;;77.88;39.60;;;;;;;;;;5072769;28;20096;-71
2022/12/17 16:49:03;;;;;;;88.90;44.25;;;;;;;;;;5072575;28;20025;-71
2022/12/17 16:51:29;;;;;;;83.97;44.53;;;;;;;;;;5071140;28;20543;-71
2022/12/17 16:53:57;;;;;;;75.90;39.78;;;;;;;;;;5072166;28;20095;-71
2022/12/17 16:56:27;;;;;;;87.78;42.78;;;;;;;;;;5070670;28;20025;-70
2022/12/17 16:58:53;;;;;;;76.55;38.92;;;;;;;;;;5072214;28;20013;-71
2022/12/17 17:01:21;;;;;;;85.20;43.28;;;;;;;;;;5070828;28;20032;-70
2022/12/17 17:03:47;;;;;;;88.35;43.35;;;;;;;;;;5070521;28;20020;-71
2022/12/17 17:06:14;;;;;;;87.88;43.03;;;;;;;;;;5072185;28;20067;-71
2022/12/17 17:08:39;;;;;;;82.32;41.22;;;;;;;;;;5072150;28;20340;-71
2022/12/17 17:11:15;;;;;;;64.25;30.95;;;;;;;;;;5070664;28;20079;-71
2022/12/17 17:13:41;;;;;;;59.30;31.48;;;;;;;;;;5071715;28;20028;-71
2022/12/17 17:16:08;;;;;;;70.55;35.45;;;;;;;;;;5071876;28;20024;-70
2022/12/17 17:18:35;;;;;;;60.00;30.15;;;;;;;;;;5075279;28;20028;-71
2022/12/17 17:21:20;;;;;;;69.68;34.20;;;;;;;;;;5073896;28;20047;-70
2022/12/17 17:23:48;;;;;;;74.95;37.72;;;;;;;;;;5075366;28;20378;-73
2022/12/17 17:26:13;;;;;;;66.47;31.23;;;;;;;;;;5076169;28;20017;-74
2022/12/17 17:28:40;;;;;;;81.90;38.97;;;;;;;;;;5054789;28;20036;-73
2022/12/17 17:31:07;;;;;;;65.63;31.27;;;;;;;;;;5054914;28;20044;-72
2022/12/17 17:33:37;;;;;;;81.43;39.42;;;;;;;;;;5055412;28;20064;-72
2022/12/17 17:36:10;;;;;;;75.70;37.42;;;;;;;;;;5056225;28;20156;-73
2022/12/17 17:38:36;;;;;;;64.10;32.05;;;;;;;;;;5055686;28;20025;-73
2022/12/17 17:41:03;;;;;;;63.83;32.38;;;;;;;;;;5056051;28;20127;-74
2022/12/17 17:43:31;;;;;;;73.97;35.30;;;;;;;;;;5054609;28;20037;-72
2022/12/17 17:46:06;;;;;;;72.25;35.10;;;;;;;;;;5054380;28;20380;-74
2022/12/17 17:48:36;;;;;;;69.25;36.58;;;;;;;;;;5054380;28;20040;-73
2022/12/17 17:51:04;;;;;;;65.70;33.97;;;;;;;;;;5054005;28;20020;-73
2022/12/17 17:53:31;;;;;;;73.90;37.05;;;;;;;;;;5054577;28;20033;-74
2022/12/17 17:56:03;;;;;;;65.65;33.63;;;;;;;;;;5056129;28;20031;-73
2022/12/17 17:58:29;;;;;;;77.72;37.67;;;;;;;;;;5054671;28;20043;-72
2022/12/17 18:00:55;;;;;;;74.00;36.75;;;;;;;;;;5055803;28;20029;-77
2022/12/17 18:03:21;;;;;;;75.60;37.95;;;;;;;;;;5053591;28;20489;-76
2022/12/17 18:05:49;;;;;;;76.65;37.75;;;;;;;;;;5055431;28;20045;-76
2022/12/17 18:08:15;;;;;;;77.43;38.47;;;;;;;;;;5054197;28;20029;-78
2022/12/17 18:10:42;;;;;;;70.57;36.78;;;;;;;;;;5054939;28;20025;-78
2022/12/17 18:15:59;;;;;;;68.20;34.60;;;;;;;;;;5055112;28;20091;-77
2022/12/17 18:18:25;;;;;;;62.88;32.50;;;;;;;;;;5053778;28;20112;-78
2022/12/17 18:21:17;;;;;;;74.93;36.40;;;;;;;;;;5054814;28;20133;-77
2022/12/17 18:23:43;;;;;;;73.82;35.28;;;;;;;;;;5037250;28;20075;-76
2022/12/17 18:26:12;;;;;;;71.30;35.38;;;;;;;;;;5037047;28;20415;-77
2022/12/17 18:28:43;;;;;;;66.38;32.85;;;;;;;;;;5055011;28;20028;-77
2022/12/17 18:31:12;;;;;;;64.43;31.63;;;;;;;;;;5053343;28;20036;-77
2022/12/17 18:33:40;;;;;;;62.60;32.50;;;;;;;;;;5053630;28;20036;-76
2022/12/17 18:36:09;;;;;;;70.35;34.08;;;;;;;;;;5053535;28;20480;-77
2022/12/17 18:38:35;;;;;;;63.05;30.35;;;;;;;;;;5052866;28;20066;-75
2022/12/17 18:44:02;;;;;;;63.28;30.00;;;;;;;;;;5054749;28;20024;-78
2022/12/17 18:46:29;;;;;;;61.92;30.20;;;;;;;;;;5054653;28;20046;-77
2022/12/17 18:48:56;;;;;;;65.65;32.35;;;;;;;;;;5054584;28;20430;-77
2022/12/17 18:51:22;;;;;;;63.83;31.27;;;;;;;;;;5054408;28;20029;-76
2022/12/17 18:53:48;;;;;;;58.25;28.10;;;;;;;;;;5054641;28;20049;-75
2022/12/17 18:56:15;;;;;;;61.95;30.35;;;;;;;;;;5053272;28;20119;-76
2022/12/17 18:58:42;;;;;;;64.35;31.70;;;;;;;;;;5053217;28;20484;-76
2022/12/17 19:01:19;;;;;;;61.95;31.67;;;;;;;;;;5053262;28;20023;-77
2022/12/17 19:03:44;;;;;;;65.85;32.35;;;;;;;;;;5047731;28;20048;-78
2022/12/17 19:06:11;;;;;;;65.82;32.80;;;;;;;;;;5049115;28;20033;-72
2022/12/17 19:08:36;;;;;;;57.45;28.88;;;;;;;;;;5048575;28;20041;-72
2022/12/17 19:11:03;;;;;;;64.55;30.75;;;;;;;;;;5032293;28;20063;-72
2022/12/17 19:13:30;;;;;;;63.97;30.75;;;;;;;;;;5049632;28;20025;-72
2022/12/17 19:15:55;;;;;;;64.82;31.35;;;;;;;;;;5032872;28;20021;-72
2022/12/17 19:18:22;;;;;;;64.28;30.73;;;;;;;;;;5033687;28;20026;-72
2022/12/17 19:20:55;;;;;;;60.20;30.00;;;;;;;;;;5032920;28;20095;-72
2022/12/17 19:23:22;;;;;;;59.65;30.60;;;;;;;;;;5031729;28;20036;-72
2022/12/17 19:25:50;;;;;;;61.03;29.65;;;;;;;;;;5032090;28;20033;-72
2022/12/17 19:28:16;;;;;;;58.92;30.02;;;;;;;;;;5032762;28;20473;-72
2022/12/17 19:30:43;;;;;;;59.45;28.65;;;;;;;;;;5031661;28;20033;-72
2022/12/17 19:33:09;;;;;;;62.53;29.48;;;;;;;;;;5033804;28;20026;-72
2022/12/17 19:35:35;;;;;;;52.33;25.45;;;;;;;;;;5033610;28;20021;-72
2022/12/17 19:38:08;;;;;;;45.15;23.42;;;;;;;;;;5033186;28;20072;-72
2022/12/17 19:40:34;;;;;;;54.03;26.27;;;;;;;;;;5015329;28;20045;-72
2022/12/17 19:43:01;;;;;;;59.75;29.50;;;;;;;;;;5048696;28;20025;-72
2022/12/17 19:45:27;;;;;;;61.30;30.02;;;;;;;;;;5032518;28;20602;-72
2022/12/17 19:47:53;;;;;;;50.42;24.85;;;;;;;;;;5033105;28;20100;-72
2022/12/17 19:50:20;;;;;;;59.08;28.88;;;;;;;;;;5031913;28;20033;-72
2022/12/17 19:52:49;;;;;;;61.92;30.20;;;;;;;;;;5033715;28;20014;-72
2022/12/17 19:55:20;;;;;;;46.78;22.90;;;;;;;;;;5033837;28;20021;-72
2022/12/17 19:57:50;;;;;;;49.03;24.17;;;;;;;;;;5032036;28;20100;-72
2022/12/17 20:00:16;;;;;;;62.45;29.60;;;;;;;;;;5033526;28;20033;-71
2022/12/17 20:02:41;;;;;;;62.65;31.65;;;;;;;;;;5033496;28;20108;-72
2022/12/17 20:05:08;;;;;;;49.33;24.85;;;;;;;;;;5033379;28;20048;-72
2022/12/17 20:07:34;;;;;;;64.57;30.13;;;;;;;;;;5049078;28;20116;-72
2022/12/17 20:10:00;;;;;;;61.38;31.10;;;;;;;;;;5033348;28;20388;-72
2022/12/17 20:12:26;;;;;;;63.60;28.70;;;;;;;;;;5032232;28;20020;-71
2022/12/17 20:14:54;;;;;;;60.60;29.55;;;;;;;;;;5032479;28;20095;-72
2022/12/17 20:17:21;;;;;;;62.22;29.92;;;;;;;;;;5031923;28;20025;-72
2022/12/17 20:19:48;;;;;;;65.97;31.48;;;;;;;;;;5031093;28;20061;-71
2022/12/17 20:22:14;;;;;;;68.70;30.73;;;;;;;;;;5032400;28;20061;-72
2022/12/17 20:24:41;;;;;;;61.35;30.45;;;;;;;;;;5032924;28;20029;-72
2022/12/17 20:27:07;;;;;;;57.55;27.45;;;;;;;;;;5033226;28;20025;-72
2022/12/17 20:29:34;;;;;;;59.38;28.35;;;;;;;;;;5033388;28;20037;-71
2022/12/17 20:32:01;;;;;;;62.50;30.23;;;;;;;;;;5031546;28;20071;-71
2022/12/17 20:34:27;;;;;;;54.85;27.42;;;;;;;;;;5033106;28;20032;-72
2022/12/17 20:36:54;;;;;;;52.92;26.38;;;;;;;;;;5031826;28;20014;-71
2022/12/17 20:39:20;;;;;;;50.15;25.35;;;;;;;;;;5031874;28;20033;-71
2022/12/17 20:41:46;;;;;;;53.20;25.85;;;;;;;;;;5031934;28;20021;-71
2022/12/17 20:44:14;;;;;;;46.75;25.38;;;;;;;;;;5032744;28;20497;-72
2022/12/17 20:46:42;;;;;;;40.50;22.27;;;;;;;;;;5031201;28;20036;-72
2022/12/17 20:49:13;;;;;;;48.90;25.30;;;;;;;;;;5031774;28;20104;-71
2022/12/17 20:51:41;;;;;;;45.83;23.90;;;;;;;;;;5032691;28;20025;-71
2022/12/17 20:54:10;;;;;;;50.25;24.60;;;;;;;;;;5035991;28;20021;-72
2022/12/17 20:56:39;;;;;;;42.97;22.27;;;;;;;;;;5035657;28;20021;-71
2022/12/17 20:59:08;;;;;;;39.88;22.25;;;;;;;;;;5035869;28;20075;-71
2022/12/17 21:01:35;;;;;;;40.65;21.27;;;;;;;;;;5035745;28;20128;-71
2022/12/17 21:04:01;;;;;;;39.40;20.20;;;;;;;;;;5035345;28;20105;-72
2022/12/17 21:06:31;;;;;;;42.30;23.20;;;;;;;;;;5035437;28;20489;-71
2022/12/17 21:08:57;;;;;;;43.87;20.97;;;;;;;;;;5035727;28;20030;-72
2022/12/17 21:11:25;;;;;;;45.30;22.73;;;;;;;;;;5036411;28;20594;-72
2022/12/17 21:13:53;;;;;;;43.22;22.27;;;;;;;;;;5035205;28;20080;-72
2022/12/17 21:16:21;;;;;;;42.42;23.02;;;;;;;;;;5036694;28;20025;-72
2022/12/17 21:18:51;;;;;;;35.83;20.95;;;;;;;;;;5036289;28;20146;-72
2022/12/17 21:21:26;;;;;;;39.50;20.23;;;;;;;;;;5035194;28;20084;-72
2022/12/17 21:23:53;;;;;;;45.97;24.42;;;;;;;;;;5036699;28;20060;-72
2022/12/17 21:26:21;;;;;;;37.17;18.55;;;;;;;;;;5036329;28;20177;-71
2022/12/17 21:28:48;;;;;;;36.50;19.40;;;;;;;;;;5036164;28;20376;-71
2022/12/17 21:31:14;;;;;;;41.08;22.52;;;;;;;;;;5034238;28;20487;-71
2022/12/17 21:33:41;;;;;;;30.70;15.90;;;;;;;;;;5034829;28;20040;-71
2022/12/17 21:36:10;;;;;;;33.72;18.80;;;;;;;;;;5051015;28;20036;-71
2022/12/17 21:38:37;;;;;;;42.15;21.90;;;;;;;;;;5034076;28;20033;-71
2022/12/17 21:41:04;;;;;;;39.58;21.63;;;;;;;;;;5033143;28;20025;-71
2022/12/17 21:43:30;;;;;;;38.47;21.50;;;;;;;;;;5034223;28;20029;-71
2022/12/17 21:45:57;;;;;;;38.70;21.95;;;;;;;;;;5036275;28;20373;-71
2022/12/17 21:48:23;;;;;;;40.58;21.23;;;;;;;;;;5034753;28;20040;-71
2022/12/17 21:50:51;;;;;;;34.10;18.45;;;;;;;;;;5036462;28;20119;-71
2022/12/17 21:53:18;;;;;;;27.73;15.77;;;;;;;;;;5035049;28;20037;-71
2022/12/17 21:55:46;;;;;;;38.40;20.23;;;;;;;;;;5051424;28;20461;-71
2022/12/17 21:58:14;;;;;;;32.58;19.55;;;;;;;;;;5034871;28;20095;-72
2022/12/17 22:00:41;;;;;;;29.27;16.10;;;;;;;;;;5034229;28;20029;-72
2022/12/17 22:03:08;;;;;;;35.17;19.13;;;;;;;;;;5034288;28;20030;-72
2022/12/17 22:05:37;;;;;;;32.92;18.55;;;;;;;;;;5037279;28;20468;-72
2022/12/17 22:08:03;;;;;;;45.05;25.95;;;;;;;;;;5054186;28;20060;-72
2022/12/17 22:10:31;;;;;;;32.28;18.83;;;;;;;;;;5055980;28;20060;-71
2022/12/17 22:15:49;;;;;;;24.65;14.90;;;;;;;;;;5056227;28;20075;-71
2022/12/17 22:18:16;;;;;;;24.23;13.90;;;;;;;;;;5054494;28;20033;-71
2022/12/17 22:20:59;;;;;;;23.30;12.88;;;;;;;;;;5055346;28;20381;-71
2022/12/17 22:23:26;;;;;;;24.80;13.48;;;;;;;;;;5054554;28;20079;-71
2022/12/17 22:25:54;;;;;;;27.17;14.88;;;;;;;;;;5055784;28;20024;-71
2022/12/17 22:28:20;;;;;;;24.00;14.18;;;;;;;;;;5055787;28;20037;-71
2022/12/17 22:33:30;;;;;;;27.40;16.42;;;;;;;;;;5055736;28;20021;-71
2022/12/17 22:36:00;;;;;;;23.48;14.32;;;;;;;;;;5055422;28;20326;-71
2022/12/17 22:38:26;;;;;;;20.58;12.60;;;;;;;;;;5055620;28;20060;-71
2022/12/17 22:40:51;;;;;;;26.65;15.68;;;;;;;;;;5072223;28;20051;-71
2022/12/17 22:43:31;;;;;;;30.70;16.27;;;;;;;;;;5075021;28;20112;-71
2022/12/17 22:45:57;;;;;;;35.00;18.00;;;;;;;;;;5075499;28;20028;-72
2022/12/17 22:48:23;;;;;;;34.15;18.77;;;;;;;;;;5075158;28;20098;-72
2022/12/17 22:50:49;;;;;;;34.97;20.23;;;;;;;;;;5074287;28;20113;-71
2022/12/17 22:53:14;;;;;;;35.10;20.00;;;;;;;;;;5075325;28;20347;-71
2022/12/17 22:55:40;;;;;;;28.95;15.35;;;;;;;;;;5075060;28;20459;-71
2022/12/17 22:58:05;;;;;;;41.10;21.23;;;;;;;;;;5075059;28;20440;-71
2022/12/17 23:00:32;;;;;;;40.05;20.40;;;;;;;;;;5075177;28;20021;-71
2022/12/17 23:02:58;;;;;;;30.00;16.08;;;;;;;;;;5075136;28;20027;-71
2022/12/17 23:05:24;;;;;;;30.00;16.52;;;;;;;;;;5074743;28;20051;-71
2022/12/17 23:07:50;;;;;;;28.02;15.60;;;;;;;;;;5074877;28;20460;-70
2022/12/17 23:10:16;;;;;;;25.40;14.52;;;;;;;;;;5073265;28;20519;-70
2022/12/17 23:12:51;;;;;;;23.25;13.27;;;;;;;;;;5074998;28;20107;-69
2022/12/17 23:15:18;;;;;;;21.42;11.80;;;;;;;;;;5074133;28;20023;-69
2022/12/17 23:17:43;;;;;;;31.67;16.50;;;;;;;;;;5074522;28;20012;-70
2022/12/17 23:20:10;;;;;;;34.40;19.73;;;;;;;;;;5074557;28;20047;-70
2022/12/17 23:22:37;;;;;;;48.72;26.00;;;;;;;;;;5074671;28;20032;-70
2022/12/17 23:25:03;;;;;;;27.35;15.77;;;;;;;;;;5074637;28;20470;-70
2022/12/17 23:27:28;;;;;;;24.30;14.85;;;;;;;;;;5074228;28;20052;-70
2022/12/17 23:29:54;;;;;;;33.50;20.42;;;;;;;;;;5074694;28;20035;-70
2022/12/17 23:32:20;;;;;;;29.00;16.20;;;;;;;;;;5074662;28;20096;-70
2022/12/17 23:34:45;;;;;;;26.45;14.43;;;;;;;;;;5074540;28;20063;-70
2022/12/17 23:37:10;;;;;;;24.17;14.23;;;;;;;;;;5074645;28;20434;-71
2022/12/17 23:39:38;;;;;;;24.42;14.20;;;;;;;;;;5073956;28;20468;-71
2022/12/17 23:42:04;;;;;;;23.38;14.00;;;;;;;;;;5073753;28;20055;-72
2022/12/17 23:44:31;;;;;;;26.98;14.70;;;;;;;;;;5074485;28;20372;-71
2022/12/17 23:47:04;;;;;;;24.83;14.68;;;;;;;;;;5074155;28;20036;-70
2022/12/17 23:49:30;;;;;;;24.50;14.52;;;;;;;;;;5073727;28;20388;-70
2022/12/17 23:51:55;;;;;;;24.95;14.23;;;;;;;;;;5074033;28;20009;-70
2022/12/17 23:54:21;;;;;;;24.45;15.20;;;;;;;;;;5073077;28;20033;-70
2022/12/17 23:56:47;;;;;;;22.42;13.70;;;;;;;;;;5074175;28;20024;-70
2022/12/17 23:59:12;;;;;;;26.73;14.68;;;;;;;;;;5073821;28;20106;-70
